createdAt,value
2018-09-10T00:01:47.771Z,5.40
2018-09-10T00:06:44.621Z,5.03
2018-09-10T00:11:41.601Z,5.73
2018-09-10T00:16:38.338Z,4.93
2018-09-10T00:21:35.627Z,5.90
2018-09-10T00:26:32.313Z,5.90
2018-09-10T00:31:29.349Z,6.07
2018-09-10T00:36:26.115Z,6.60
2018-09-10T00:41:23.069Z,6.00
2018-09-10T00:46:20.034Z,6.70
2018-09-10T00:51:16.841Z,6.03
2018-09-10T00:56:13.863Z,5.90
2018-09-10T01:01:11.459Z,6.50
2018-09-10T01:06:08.508Z,6.20
2018-09-10T01:11:05.280Z,6.53
2018-09-10T01:16:02.524Z,6.50
2018-09-10T01:21:00.178Z,5.77
2018-09-10T01:25:57.179Z,5.30
2018-09-10T01:30:54.136Z,6.20
2018-09-10T01:35:51.178Z,6.50
2018-09-10T01:40:47.863Z,6.27
2018-09-10T01:45:44.965Z,6.33
2018-09-10T01:50:41.629Z,6.70
2018-09-10T01:55:38.533Z,6.60
2018-09-10T02:00:36.406Z,6.37
2018-09-10T02:05:33.378Z,6.13
2018-09-10T02:10:30.169Z,6.23
2018-09-10T02:15:27.197Z,6.63
2018-09-10T02:20:23.912Z,7.23
2018-09-10T02:25:20.822Z,6.93
2018-09-10T02:30:18.531Z,6.30
2018-09-10T02:35:16.610Z,6.63
2018-09-10T02:40:13.317Z,7.33
2018-09-10T02:45:10.430Z,6.93
2018-09-10T02:50:07.162Z,7.17
2018-09-10T02:55:04.267Z,7.07
2018-09-10T03:00:01.054Z,7.33
2018-09-10T03:04:58.053Z,6.60
2018-09-10T03:09:54.884Z,7.03
2018-09-10T03:14:51.978Z,7.10
2018-09-10T03:19:48.762Z,8.03
2018-09-10T03:24:45.692Z,6.30
2018-09-10T03:29:42.425Z,6.97
2018-09-10T03:34:40.034Z,6.73
2018-09-10T03:39:36.892Z,7.13
2018-09-10T03:44:33.740Z,6.77
2018-09-10T03:49:30.817Z,7.23
2018-09-10T03:54:27.602Z,6.83
2018-09-10T03:59:24.556Z,7.23
2018-09-10T04:04:21.334Z,7.70
2018-09-10T04:09:18.363Z,7.10
2018-09-10T04:14:15.078Z,7.40
2018-09-10T04:19:12.191Z,7.40
2018-09-10T04:24:08.947Z,7.10
2018-09-10T04:29:05.907Z,7.80
2018-09-10T04:34:02.892Z,7.57
2018-09-10T04:39:00.116Z,7.97
2018-09-10T04:43:56.898Z,6.23
2018-09-10T04:48:53.911Z,7.60
2018-09-10T04:53:50.588Z,6.87
2018-09-10T04:58:47.564Z,6.87
2018-09-10T05:03:44.361Z,7.23
2018-09-10T05:08:41.284Z,7.27
2018-09-10T05:13:38.737Z,8.40
2018-09-10T05:18:35.849Z,7.10
2018-09-10T05:23:32.681Z,7.40
2018-09-10T05:28:29.661Z,7.43
2018-09-10T05:33:26.384Z,7.63
2018-09-10T05:38:23.485Z,7.70
2018-09-10T05:43:20.206Z,6.90
2018-09-10T05:48:17.199Z,7.57
2018-09-10T05:53:13.929Z,7.80
2018-09-10T05:58:10.821Z,7.37
2018-09-10T06:03:07.606Z,7.07
2018-09-10T06:08:04.753Z,7.20
2018-09-10T06:13:01.534Z,6.60
2018-09-10T06:17:58.458Z,6.73
2018-09-10T06:22:55.429Z,6.90
2018-09-10T06:27:52.695Z,6.90
2018-09-10T06:32:49.429Z,6.27
2018-09-10T06:37:47.302Z,6.40
2018-09-10T06:42:44.076Z,6.80
2018-09-10T06:47:41.082Z,6.47
2018-09-10T06:52:37.865Z,6.83
2018-09-10T06:57:34.895Z,6.67
2018-09-10T07:02:31.621Z,6.70
2018-09-10T07:07:28.609Z,6.50
2018-09-10T07:12:25.558Z,7.00
2018-09-10T07:17:22.841Z,6.83
2018-09-10T07:22:19.553Z,6.07
2018-09-10T07:27:16.466Z,6.63
2018-09-10T07:32:13.218Z,6.00
2018-09-10T07:37:10.173Z,5.97
2018-09-10T07:42:07.346Z,5.97
2018-09-10T07:47:04.511Z,5.47
2018-09-10T07:52:01.413Z,5.50
2018-09-10T07:56:58.641Z,5.53
2018-09-10T08:01:55.375Z,5.20
2018-09-10T08:06:52.836Z,5.33
2018-09-10T08:11:49.542Z,4.90
2018-09-10T08:16:46.484Z,5.90
2018-09-10T08:21:43.238Z,5.17
2018-09-10T08:26:40.328Z,4.12
2018-09-10T08:31:37.056Z,4.10
2018-09-10T08:36:34.023Z,3.42
2018-09-10T08:41:30.744Z,3.77
2018-09-10T08:46:28.562Z,3.17
2018-09-10T08:51:25.644Z,3.30
2018-09-10T08:56:22.409Z,2.87
2018-09-10T09:01:19.450Z,2.65
2018-09-10T09:06:16.158Z,2.52
2018-09-10T09:11:13.414Z,2.60
2018-09-10T09:16:10.350Z,2.77
2018-09-10T09:21:07.349Z,2.30
2018-09-10T09:26:04.078Z,2.00
2018-09-10T09:31:01.233Z,1.90
2018-09-10T09:36:03.947Z,2.15
2018-09-10T09:41:06.743Z,1.82
2018-09-10T09:46:06.137Z,1.75
2018-09-10T09:51:04.494Z,2.27
2018-09-10T09:56:01.369Z,1.77
2018-09-10T10:01:04.507Z,2.15
2018-09-10T10:06:01.216Z,2.02
2018-09-10T10:10:58.133Z,1.77
2018-09-10T10:15:55.100Z,1.60
2018-09-10T10:20:52.061Z,1.60
2018-09-10T10:25:48.880Z,1.80
2018-09-10T10:30:46.021Z,2.10
2018-09-10T10:35:42.795Z,1.80
2018-09-10T10:40:40.412Z,2.02
2018-09-10T10:45:37.157Z,1.90
2018-09-10T10:50:34.458Z,1.95
2018-09-10T10:55:31.206Z,2.17
2018-09-10T11:00:28.183Z,2.30
2018-09-10T11:05:24.947Z,2.20
2018-09-10T11:10:22.625Z,2.87
2018-09-10T11:15:19.360Z,2.22
2018-09-10T11:20:16.646Z,1.90
2018-09-10T11:25:13.372Z,1.95
2018-09-10T11:30:10.469Z,2.12
2018-09-10T11:35:07.333Z,2.25
2018-09-10T11:40:04.269Z,2.25
2018-09-10T11:45:01.943Z,1.95
2018-09-10T11:49:58.924Z,2.10
2018-09-10T11:54:55.682Z,2.22
2018-09-10T11:59:52.656Z,2.10
2018-09-10T12:04:49.401Z,2.05
2018-09-10T12:09:46.285Z,1.90
2018-09-10T12:14:43.246Z,2.40
2018-09-10T12:19:40.503Z,2.17
2018-09-10T12:24:37.249Z,1.75
2018-09-10T12:29:34.218Z,2.20
2018-09-10T12:34:30.916Z,2.20
2018-09-10T12:39:27.842Z,1.80
2018-09-10T12:44:24.517Z,2.00
2018-09-10T12:49:21.501Z,1.72
2018-09-10T12:54:18.722Z,1.90
2018-09-10T12:59:15.420Z,2.00
2018-09-10T13:04:12.633Z,1.70
2018-09-10T13:09:09.307Z,2.10
2018-09-10T13:14:06.262Z,1.75
2018-09-10T13:19:03.233Z,2.10
2018-09-10T13:23:59.895Z,1.60
2018-09-10T13:28:56.838Z,1.70
2018-09-10T13:33:53.522Z,2.02
2018-09-10T13:38:50.479Z,1.70
2018-09-10T13:43:47.145Z,1.50
2018-09-10T13:48:44.282Z,1.90
2018-09-10T13:53:41.383Z,2.10
2018-09-10T13:58:38.252Z,2.00
2018-09-10T14:03:34.927Z,1.98
2018-09-10T14:08:31.825Z,1.90
2018-09-10T14:13:28.517Z,2.20
2018-09-10T14:18:25.954Z,1.92
2018-09-10T14:23:22.653Z,2.10
2018-09-10T14:28:19.686Z,2.25
2018-09-10T14:33:16.633Z,2.33
2018-09-10T14:38:13.334Z,2.20
2018-09-10T14:43:10.713Z,1.80
2018-09-10T14:48:07.786Z,2.40
2018-09-10T14:53:04.988Z,2.25
2018-09-10T14:58:01.701Z,2.50
2018-09-10T15:02:58.850Z,2.47
2018-09-10T15:07:55.542Z,2.90
2018-09-10T15:12:52.445Z,2.62
2018-09-10T15:17:49.107Z,2.45
2018-09-10T15:22:46.261Z,2.90
2018-09-10T15:27:42.948Z,2.92
2018-09-10T15:32:40.081Z,2.55
2018-09-10T15:37:36.751Z,3.00
2018-09-10T15:42:33.706Z,3.70
2018-09-10T15:47:30.880Z,2.60
2018-09-10T15:52:28.025Z,5.65
2018-09-10T15:57:24.965Z,4.95
2018-09-10T16:02:21.866Z,3.72
2018-09-10T16:07:18.634Z,5.28
2018-09-10T16:12:15.453Z,4.33
2018-09-10T16:17:12.177Z,3.47
2018-09-10T16:22:09.226Z,6.37
2018-09-10T16:27:05.943Z,16.93
2018-09-10T16:32:02.927Z,8.05
2018-09-10T16:36:59.671Z,4.78
2018-09-10T16:41:56.849Z,3.80
2018-09-10T16:46:53.540Z,6.08
2018-09-10T16:51:50.569Z,3.87
2018-09-10T16:56:48.350Z,3.17
2018-09-10T17:01:44.773Z,3.17
2018-09-10T17:06:41.951Z,3.25
2018-09-10T17:11:38.637Z,3.35
2018-09-10T17:16:35.702Z,3.15
2018-09-10T17:21:32.449Z,2.98
2018-09-10T17:26:29.622Z,3.37
2018-09-10T17:31:26.319Z,4.50
2018-09-10T17:36:23.225Z,4.20
2018-09-10T17:41:19.917Z,3.50
2018-09-10T17:46:16.844Z,3.60
2018-09-10T17:51:13.539Z,2.87
2018-09-10T17:56:10.523Z,3.17
2018-09-10T18:01:07.237Z,3.45
2018-09-10T18:06:05.006Z,3.02
2018-09-10T18:11:01.746Z,3.30
2018-09-10T18:15:58.742Z,3.58
2018-09-10T18:20:55.421Z,3.50
2018-09-10T18:25:52.646Z,3.45
2018-09-10T18:30:49.809Z,3.30
2018-09-10T18:35:47.071Z,3.92
2018-09-10T18:40:43.741Z,4.00
2018-09-10T18:45:40.806Z,4.10
2018-09-10T18:50:37.488Z,3.50
2018-09-10T18:55:34.417Z,3.50
2018-09-10T19:00:31.420Z,3.22
2018-09-10T19:05:28.431Z,3.65
2018-09-10T19:10:25.264Z,3.40
2018-09-10T19:15:22.171Z,3.45
2018-09-10T19:20:19.021Z,3.70
2018-09-10T19:25:16.098Z,3.80
2018-09-10T19:30:12.817Z,3.98
2018-09-10T19:35:09.710Z,3.83
2018-09-10T19:40:06.425Z,3.67
2018-09-10T19:45:03.434Z,3.40
2018-09-10T19:50:00.178Z,3.73
2018-09-10T19:54:56.853Z,4.13
2018-09-10T19:59:53.629Z,3.72
2018-09-10T20:04:50.486Z,3.83
2018-09-10T20:09:47.277Z,3.77
2018-09-10T20:14:43.949Z,3.47
2018-09-10T20:19:41.041Z,3.80
2018-09-10T20:24:37.768Z,4.30
2018-09-10T20:29:34.961Z,5.40
2018-09-10T20:34:31.642Z,4.53
2018-09-10T20:39:28.945Z,4.17
2018-09-10T20:44:25.673Z,4.13
2018-09-10T20:49:22.721Z,3.97
2018-09-10T20:54:19.402Z,4.70
2018-09-10T20:59:16.679Z,3.70
2018-09-10T21:04:13.461Z,3.70
2018-09-10T21:09:11.020Z,4.00
2018-09-10T21:14:07.826Z,3.77
2018-09-10T21:19:04.789Z,4.20
2018-09-10T21:24:02.016Z,4.30
2018-09-10T21:28:59.027Z,4.47
2018-09-10T21:33:55.976Z,4.70
2018-09-10T21:38:52.710Z,3.87
2018-09-10T21:43:49.612Z,4.17
2018-09-10T21:48:46.385Z,4.40
2018-09-10T21:53:43.343Z,4.40
2018-09-10T21:58:40.098Z,4.50
2018-09-10T22:03:37.337Z,4.33
2018-09-10T22:08:34.116Z,4.37
2018-09-10T22:13:31.174Z,4.13
2018-09-10T22:18:27.996Z,4.37
2018-09-10T22:23:24.893Z,4.00
2018-09-10T22:28:21.852Z,4.17
2018-09-10T22:33:18.810Z,4.60
2018-09-10T22:38:15.573Z,4.60
2018-09-10T22:43:12.533Z,4.40
2018-09-10T22:48:09.755Z,4.03
2018-09-10T22:53:06.583Z,4.50
2018-09-10T22:58:03.617Z,4.00
2018-09-10T23:03:00.394Z,4.20
2018-09-10T23:07:57.947Z,4.50
2018-09-10T23:12:54.686Z,4.07
2018-09-10T23:17:51.736Z,4.30
2018-09-10T23:22:48.497Z,4.13
2018-09-10T23:27:45.505Z,4.27
2018-09-10T23:32:42.214Z,5.10
2018-09-10T23:37:39.127Z,4.60
2018-09-10T23:42:35.871Z,4.47
2018-09-10T23:47:32.752Z,4.30
2018-09-10T23:52:29.491Z,3.97
2018-09-10T23:57:26.671Z,4.60
